createdAt,value
2022-12-15T00:00:23.209Z,72.07
2022-12-15T00:03:09.231Z,57.03
2022-12-15T00:05:55.500Z,55.80
2022-12-15T00:08:41.831Z,56.17
2022-12-15T00:11:28.041Z,53.30
2022-12-15T00:14:14.074Z,56.17
2022-12-15T00:17:00.524Z,51.13
2022-12-15T00:19:46.666Z,50.90
2022-12-15T00:22:32.725Z,58.13
2022-12-15T00:25:18.719Z,66.40
2022-12-15T00:28:04.625Z,71.30
2022-12-15T00:30:50.823Z,71.33
2022-12-15T00:33:36.658Z,58.73
2022-12-15T00:36:23.426Z,60.13
2022-12-15T00:38:50.957Z,53.53
2022-12-15T00:41:19.003Z,83.67
2022-12-15T00:43:46.762Z,81.33
2022-12-15T00:46:33.442Z,58.90
2022-12-15T00:49:01.191Z,67.20
2022-12-15T00:51:47.282Z,70.73
2022-12-15T00:54:33.423Z,58.00
2022-12-15T00:57:19.229Z,67.83
2022-12-15T01:00:05.062Z,61.03
2022-12-15T01:02:51.336Z,65.73
2022-12-15T01:05:37.449Z,62.63
2022-12-15T01:08:23.461Z,61.80
2022-12-15T01:11:09.355Z,72.60
2022-12-15T01:13:55.517Z,67.73
2022-12-15T01:16:41.720Z,72.67
2022-12-15T01:19:28.486Z,48.83
2022-12-15T01:21:55.860Z,66.20
2022-12-15T01:24:23.428Z,54.30
2022-12-15T01:26:51.061Z,47.33
2022-12-15T01:29:18.478Z,64.83
2022-12-15T01:31:49.815Z,51.10
2022-12-15T01:34:18.348Z,65.20
2022-12-15T01:36:45.753Z,66.27
2022-12-15T01:39:13.452Z,53.33
2022-12-15T01:41:40.917Z,62.33
2022-12-15T01:44:15.814Z,58.27
2022-12-15T01:46:43.291Z,65.73
2022-12-15T01:49:13.549Z,51.90
2022-12-15T01:51:42.604Z,63.17
2022-12-15T01:54:18.840Z,65.67
2022-12-15T01:56:51.518Z,63.10
2022-12-15T01:59:21.636Z,58.50
2022-12-15T02:01:49.727Z,52.47
2022-12-15T02:04:19.092Z,61.07
2022-12-15T02:06:46.497Z,56.40
2022-12-15T02:09:14.081Z,65.87
2022-12-15T02:11:44.514Z,66.43
2022-12-15T02:14:12.916Z,57.87
2022-12-15T02:16:55.534Z,59.90
2022-12-15T02:19:35.361Z,55.57
2022-12-15T02:22:02.731Z,56.00
2022-12-15T02:24:50.015Z,58.90
2022-12-15T02:27:20.382Z,55.37
2022-12-15T02:30:06.804Z,55.63
2022-12-15T02:32:43.868Z,58.17
2022-12-15T02:35:16.244Z,61.60
2022-12-15T02:37:45.725Z,61.87
2022-12-15T02:40:17.540Z,59.20
2022-12-15T02:42:47.265Z,58.03
2022-12-15T02:45:19.951Z,57.23
2022-12-15T02:47:47.301Z,61.00
2022-12-15T02:50:29.958Z,57.90
2022-12-15T02:53:06.718Z,50.87
2022-12-15T02:55:40.443Z,51.60
2022-12-15T02:58:19.815Z,58.57
2022-12-15T03:00:51.298Z,50.83
2022-12-15T03:03:20.628Z,59.07
2022-12-15T03:07:45.919Z,54.47
2022-12-15T03:10:17.857Z,49.07
2022-12-15T03:12:45.425Z,53.80
2022-12-15T03:15:12.906Z,61.10
2022-12-15T03:17:40.440Z,54.97
2022-12-15T03:20:09.131Z,62.67
2022-12-15T03:22:37.638Z,61.17
2022-12-15T03:25:05.266Z,51.93
2022-12-15T03:27:32.646Z,59.23
2022-12-15T03:30:00.096Z,57.00
2022-12-15T03:32:27.615Z,45.50
2022-12-15T03:34:55.196Z,58.80
2022-12-15T03:37:22.606Z,58.27
2022-12-15T03:39:49.972Z,51.47
2022-12-15T03:42:37.393Z,58.93
2022-12-15T03:45:05.323Z,50.80
2022-12-15T03:47:32.697Z,46.10
2022-12-15T03:50:00.093Z,50.87
2022-12-15T03:52:27.576Z,45.33
2022-12-15T03:54:54.954Z,55.90
2022-12-15T03:57:22.508Z,52.77
2022-12-15T03:59:50.044Z,56.80
2022-12-15T04:02:17.684Z,47.97
2022-12-15T04:04:45.144Z,48.33
2022-12-15T04:07:12.914Z,52.93
2022-12-15T04:09:40.334Z,47.00
2022-12-15T04:12:08.073Z,52.03
2022-12-15T04:14:35.427Z,56.63
2022-12-15T04:17:02.901Z,49.47
2022-12-15T04:20:08.626Z,55.10
2022-12-15T04:22:40.152Z,52.87
2022-12-15T04:25:27.177Z,56.90
2022-12-15T04:28:13.145Z,53.77
2022-12-15T04:31:01.551Z,51.27
2022-12-15T04:33:47.536Z,58.13
2022-12-15T04:36:33.818Z,47.70
2022-12-15T04:39:20.095Z,52.30
2022-12-15T04:42:05.777Z,47.20
2022-12-15T04:44:51.824Z,43.63
2022-12-15T04:47:37.553Z,53.37
2022-12-15T04:50:23.699Z,60.67
2022-12-15T04:53:09.635Z,56.63
2022-12-15T04:55:56.111Z,54.87
2022-12-15T04:58:41.962Z,54.27
2022-12-15T05:01:28.192Z,53.20
2022-12-15T05:04:17.647Z,58.93
2022-12-15T05:07:07.052Z,51.83
2022-12-15T05:09:52.984Z,47.63
2022-12-15T05:12:39.033Z,48.30
2022-12-15T05:15:25.336Z,76.97
2022-12-15T05:18:11.706Z,58.47
2022-12-15T05:20:58.292Z,60.77
2022-12-15T05:23:44.222Z,60.87
2022-12-15T05:26:30.343Z,57.83
2022-12-15T05:29:16.186Z,47.97
2022-12-15T05:31:49.260Z,40.30
2022-12-15T05:34:16.776Z,51.80
2022-12-15T05:36:44.090Z,50.27
2022-12-15T05:39:11.424Z,55.83
2022-12-15T05:41:38.797Z,69.07
2022-12-15T05:44:06.363Z,59.77
2022-12-15T05:46:33.810Z,52.40
2022-12-15T05:49:03.696Z,53.53
2022-12-15T05:51:31.093Z,53.70
2022-12-15T05:53:58.446Z,58.27
2022-12-15T05:56:26.797Z,56.47
2022-12-15T05:58:54.350Z,50.17
2022-12-15T06:01:22.221Z,59.70
2022-12-15T06:03:49.847Z,49.43
2022-12-15T06:06:17.555Z,56.93
2022-12-15T06:08:45.010Z,46.37
2022-12-15T06:11:13.444Z,48.50
2022-12-15T06:13:41.243Z,52.03
2022-12-15T06:16:11.295Z,55.50
2022-12-15T06:18:40.849Z,46.00
2022-12-15T06:21:09.573Z,51.97
2022-12-15T06:23:37.346Z,51.07
2022-12-15T06:26:12.324Z,48.97
2022-12-15T06:28:39.807Z,46.47
2022-12-15T06:31:08.423Z,45.93
2022-12-15T06:33:36.529Z,84.00
2022-12-15T06:36:04.880Z,55.17
2022-12-15T06:38:32.340Z,44.67
2022-12-15T06:41:00.670Z,50.23
2022-12-15T06:43:29.082Z,53.87
2022-12-15T06:45:56.854Z,54.80
2022-12-15T06:48:24.583Z,50.73
2022-12-15T06:50:52.761Z,45.67
2022-12-15T06:53:21.229Z,56.27
2022-12-15T06:55:49.026Z,55.20
2022-12-15T06:58:16.768Z,46.87
2022-12-15T07:00:44.788Z,47.80
2022-12-15T07:03:16.322Z,51.63
2022-12-15T07:05:44.561Z,53.33
2022-12-15T07:08:12.564Z,55.13
2022-12-15T07:10:44.191Z,48.07
2022-12-15T07:13:12.414Z,60.07
2022-12-15T07:15:40.514Z,67.70
2022-12-15T07:18:08.402Z,47.13
2022-12-15T07:20:35.787Z,61.73
2022-12-15T07:23:07.953Z,56.03
2022-12-15T07:25:36.830Z,55.83
2022-12-15T07:28:04.458Z,58.73
2022-12-15T07:30:38.331Z,55.03
2022-12-15T07:33:06.529Z,59.73
2022-12-15T07:35:34.098Z,60.67
2022-12-15T07:38:01.536Z,63.97
2022-12-15T07:40:29.545Z,61.73
2022-12-15T07:42:57.353Z,58.87
2022-12-15T07:45:24.798Z,62.80
2022-12-15T07:47:53.457Z,66.07
2022-12-15T07:50:20.856Z,59.60
2022-12-15T07:52:48.341Z,62.23
2022-12-15T07:55:16.476Z,62.73
2022-12-15T07:57:43.902Z,63.50
2022-12-15T08:00:11.439Z,69.07
2022-12-15T08:02:42.550Z,55.50
2022-12-15T08:05:11.241Z,53.07
2022-12-15T08:07:38.652Z,52.90
2022-12-15T08:10:06.230Z,59.80
2022-12-15T08:12:33.604Z,73.60
2022-12-15T08:15:00.976Z,64.60
2022-12-15T08:17:28.440Z,73.50
2022-12-15T08:19:58.839Z,63.67
2022-12-15T08:22:26.405Z,66.17
2022-12-15T08:24:53.755Z,69.67
2022-12-15T08:27:24.053Z,62.43
2022-12-15T08:29:52.592Z,75.30
2022-12-15T08:32:20.328Z,59.80
2022-12-15T08:34:49.414Z,74.73
2022-12-15T08:37:16.890Z,68.60
2022-12-15T08:39:44.263Z,67.33
2022-12-15T08:42:11.641Z,62.30
2022-12-15T08:44:39.049Z,61.47
2022-12-15T08:47:06.945Z,69.13
2022-12-15T08:49:34.371Z,56.33
2022-12-15T08:52:01.817Z,68.33
2022-12-15T08:54:29.315Z,56.33
2022-12-15T08:56:56.788Z,59.07
2022-12-15T08:59:24.214Z,65.00
2022-12-15T09:01:51.733Z,60.70
2022-12-15T09:04:19.496Z,87.35
2022-12-15T09:06:50.380Z,76.13
2022-12-15T09:09:18.687Z,76.53
2022-12-15T09:11:46.101Z,61.33
2022-12-15T09:14:14.697Z,77.07
2022-12-15T09:16:42.388Z,70.97
2022-12-15T09:19:10.186Z,72.50
2022-12-15T09:21:37.663Z,77.67
2022-12-15T09:24:05.212Z,65.30
2022-12-15T09:26:35.372Z,72.60
2022-12-15T09:29:02.973Z,59.77
2022-12-15T09:31:34.646Z,69.87
2022-12-15T09:34:02.185Z,68.00
2022-12-15T09:36:30.463Z,72.80
2022-12-15T09:38:57.913Z,80.40
2022-12-15T09:41:28.286Z,78.73
2022-12-15T09:43:58.621Z,66.23
2022-12-15T09:46:29.076Z,81.57
2022-12-15T09:48:59.204Z,72.43
2022-12-15T09:51:32.885Z,73.43
2022-12-15T09:54:00.816Z,69.87
2022-12-15T09:56:39.574Z,74.93
2022-12-15T09:59:22.355Z,60.60
2022-12-15T10:01:49.782Z,67.93
2022-12-15T10:04:30.692Z,57.13
2022-12-15T10:07:03.615Z,59.90
2022-12-15T10:09:31.269Z,56.80
2022-12-15T10:12:18.876Z,59.23
2022-12-15T10:14:50.756Z,59.17
2022-12-15T10:17:36.614Z,55.73
2022-12-15T10:20:13.135Z,71.03
2022-12-15T10:22:40.708Z,73.30
2022-12-15T10:28:17.393Z,59.90
2022-12-15T10:31:05.178Z,69.87
2022-12-15T10:33:35.886Z,69.93
2022-12-15T10:36:07.546Z,56.60
2022-12-15T10:38:40.519Z,58.20
2022-12-15T10:41:21.549Z,68.23
2022-12-15T10:43:50.294Z,65.60
2022-12-15T10:46:19.732Z,51.27
2022-12-15T10:48:49.244Z,51.20
2022-12-15T10:51:29.131Z,49.40
2022-12-15T10:54:06.436Z,48.57
2022-12-15T10:56:34.687Z,50.70
2022-12-15T10:59:03.699Z,50.37
2022-12-15T11:01:32.565Z,47.90
2022-12-15T11:04:00.692Z,56.43
2022-12-15T11:06:30.166Z,48.03
2022-12-15T11:08:58.379Z,46.70
2022-12-15T11:11:50.338Z,51.03
2022-12-15T11:14:24.174Z,46.00
2022-12-15T11:16:53.273Z,44.73
2022-12-15T11:19:44.063Z,51.87
2022-12-15T11:22:31.715Z,40.63
2022-12-15T11:25:01.447Z,49.23
2022-12-15T11:27:36.871Z,56.73
2022-12-15T11:30:04.320Z,48.70
2022-12-15T11:32:35.561Z,50.50
2022-12-15T11:35:03.158Z,46.43
2022-12-15T11:37:38.476Z,46.87
2022-12-15T11:40:25.300Z,46.00
2022-12-15T11:42:53.259Z,57.50
2022-12-15T11:45:27.883Z,52.87
2022-12-15T11:48:07.012Z,51.43
2022-12-15T11:50:41.551Z,43.60
2022-12-15T11:53:08.895Z,43.80
2022-12-15T11:55:41.210Z,46.97
2022-12-15T11:58:27.626Z,47.80
2022-12-15T12:01:13.730Z,41.23
2022-12-15T12:03:41.162Z,47.75
2022-12-15T12:06:11.743Z,45.08
2022-12-15T12:08:46.963Z,45.03
2022-12-15T12:11:26.188Z,40.13
2022-12-15T12:14:00.005Z,48.73
2022-12-15T12:16:30.263Z,40.33
2022-12-15T12:19:10.617Z,37.77
2022-12-15T12:21:40.641Z,43.07
2022-12-15T12:24:11.444Z,42.13
2022-12-15T12:26:42.506Z,50.73
2022-12-15T12:29:16.999Z,40.10
2022-12-15T12:31:51.065Z,44.33
2022-12-15T12:34:23.519Z,38.60
2022-12-15T12:36:51.430Z,40.77
2022-12-15T12:39:20.931Z,41.07
2022-12-15T12:41:56.368Z,39.37
2022-12-15T12:44:32.789Z,43.27
2022-12-15T12:47:05.803Z,33.50
2022-12-15T12:49:37.594Z,39.97
2022-12-15T12:52:07.246Z,46.20
2022-12-15T12:54:34.760Z,43.03
2022-12-15T12:57:02.820Z,42.17
2022-12-15T12:59:30.183Z,43.70
2022-12-15T13:01:58.798Z,35.20
2022-12-15T13:04:29.337Z,39.47
2022-12-15T13:06:58.942Z,35.20
2022-12-15T13:09:43.072Z,36.57
2022-12-15T13:12:52.993Z,37.63
2022-12-15T13:15:25.686Z,34.87
2022-12-15T13:17:55.442Z,40.37
2022-12-15T13:20:24.740Z,41.87
2022-12-15T13:22:52.693Z,36.37
2022-12-15T13:25:27.819Z,44.60
2022-12-15T13:27:57.848Z,39.07
2022-12-15T13:30:25.466Z,45.03
2022-12-15T13:32:55.003Z,37.20
2022-12-15T13:35:43.205Z,32.83
2022-12-15T13:38:19.492Z,34.00
2022-12-15T13:40:50.416Z,36.50
2022-12-15T13:43:26.932Z,39.73
2022-12-15T13:45:56.073Z,35.23
2022-12-15T13:48:29.799Z,42.33
2022-12-15T13:50:57.184Z,33.57
2022-12-15T13:53:26.172Z,43.37
2022-12-15T13:56:16.879Z,34.83
2022-12-15T13:58:45.773Z,35.50
2022-12-15T14:01:20.649Z,36.73
2022-12-15T14:03:58.429Z,34.40
2022-12-15T14:06:28.414Z,38.00
2022-12-15T14:08:55.902Z,39.73
2022-12-15T14:11:51.387Z,37.80
2022-12-15T14:14:16.529Z,40.97
2022-12-15T14:16:46.769Z,33.43
2022-12-15T14:19:18.689Z,46.40
2022-12-15T14:21:53.717Z,38.43
2022-12-15T14:24:40.023Z,39.93
2022-12-15T14:27:08.145Z,38.20
2022-12-15T14:29:35.765Z,41.07
2022-12-15T14:32:03.561Z,38.80
2022-12-15T14:34:33.638Z,32.77
2022-12-15T14:37:04.444Z,37.77
2022-12-15T14:39:38.051Z,38.33
2022-12-15T14:42:07.941Z,39.70
2022-12-15T14:47:29.041Z,47.10
2022-12-15T14:49:57.741Z,42.73
2022-12-15T14:52:28.436Z,34.60
2022-12-15T14:55:00.348Z,45.57
2022-12-15T14:57:45.131Z,42.90
2022-12-15T15:00:28.150Z,34.77
2022-12-15T15:03:04.401Z,56.23
2022-12-15T15:03:06.024Z,44.57
2022-12-15T15:03:18.427Z,36.67
2022-12-15T15:05:48.471Z,39.27
2022-12-15T15:08:26.841Z,33.07
2022-12-15T15:10:55.807Z,45.97
2022-12-15T15:13:26.252Z,38.73
2022-12-15T15:15:54.906Z,37.63
2022-12-15T15:18:25.140Z,39.93
2022-12-15T15:20:56.948Z,43.30
2022-12-15T15:23:24.640Z,41.60
2022-12-15T15:25:52.086Z,45.47
2022-12-15T15:28:19.732Z,44.87
2022-12-15T15:30:48.915Z,55.70
2022-12-15T15:33:16.913Z,43.43
2022-12-15T15:35:45.320Z,45.47
2022-12-15T15:38:28.294Z,43.20
2022-12-15T15:40:57.759Z,43.83
2022-12-15T15:43:26.025Z,43.67
2022-12-15T15:45:57.309Z,46.53
2022-12-15T15:48:27.718Z,44.10
2022-12-15T15:50:55.857Z,51.13
2022-12-15T15:53:24.703Z,48.10
2022-12-15T15:55:53.834Z,47.07
2022-12-15T15:58:21.293Z,49.43
2022-12-15T16:00:48.693Z,60.57
2022-12-15T16:03:16.438Z,51.90
2022-12-15T16:05:44.489Z,58.07
2022-12-15T16:08:14.667Z,56.43
2022-12-15T16:10:45.605Z,60.97
2022-12-15T16:13:13.591Z,55.37
2022-12-15T16:15:41.333Z,52.43
2022-12-15T16:18:08.774Z,42.95
2022-12-15T16:20:37.474Z,52.07
2022-12-15T16:23:07.005Z,53.73
2022-12-15T16:25:48.479Z,43.73
2022-12-15T16:28:21.837Z,48.13
2022-12-15T16:30:49.718Z,53.83
2022-12-15T16:33:23.952Z,52.77
2022-12-15T16:35:52.317Z,51.67
2022-12-15T16:38:22.825Z,50.20
2022-12-15T16:40:50.634Z,49.97
2022-12-15T16:43:19.710Z,51.87
2022-12-15T16:45:48.861Z,56.70
2022-12-15T16:48:16.734Z,43.93
2022-12-15T16:50:45.368Z,58.47
2022-12-15T16:53:39.008Z,51.07
2022-12-15T16:56:07.526Z,54.07
2022-12-15T16:58:35.960Z,55.63
2022-12-15T17:01:03.944Z,44.13
2022-12-15T17:03:31.684Z,62.20
2022-12-15T17:06:01.243Z,59.50
2022-12-15T17:08:31.477Z,56.67
2022-12-15T17:10:59.256Z,58.93
2022-12-15T17:13:37.790Z,57.53
2022-12-15T17:16:06.413Z,42.93
2022-12-15T17:18:34.506Z,42.50
2022-12-15T17:21:07.636Z,47.00
2022-12-15T17:23:35.820Z,45.33
2022-12-15T17:26:27.681Z,44.83
2022-12-15T17:28:51.867Z,57.67
2022-12-15T17:31:24.007Z,43.93
2022-12-15T17:33:52.661Z,57.33
2022-12-15T17:36:24.496Z,55.03
2022-12-15T17:38:53.700Z,60.00
2022-12-15T17:41:50.200Z,58.90
2022-12-15T17:44:36.168Z,61.63
2022-12-15T17:47:06.699Z,54.67
2022-12-15T17:49:37.817Z,60.93
2022-12-15T17:52:26.409Z,61.53
2022-12-15T17:54:54.409Z,60.83
2022-12-15T17:57:22.021Z,55.33
2022-12-15T17:59:50.007Z,66.33
2022-12-15T18:02:17.811Z,61.33
2022-12-15T18:04:45.433Z,63.87
2022-12-15T18:07:23.417Z,69.10
2022-12-15T18:09:51.565Z,64.07
2022-12-15T18:12:23.225Z,75.23
2022-12-15T18:14:50.746Z,70.60
2022-12-15T18:17:19.249Z,73.10
2022-12-15T18:19:46.710Z,65.43
2022-12-15T18:22:24.630Z,76.63
2022-12-15T18:24:53.383Z,68.33
2022-12-15T18:27:28.087Z,68.27
2022-12-15T18:29:56.519Z,61.47
2022-12-15T18:32:25.579Z,60.80
2022-12-15T18:34:53.825Z,61.83
2022-12-15T18:37:23.347Z,77.90
2022-12-15T18:39:51.245Z,66.17
2022-12-15T18:42:19.866Z,69.90
2022-12-15T18:44:51.674Z,67.20
2022-12-15T18:47:19.794Z,63.27
2022-12-15T18:49:47.754Z,78.87
2022-12-15T18:52:20.074Z,63.97
2022-12-15T18:54:51.343Z,72.30
2022-12-15T18:57:32.218Z,66.67
2022-12-15T19:00:00.578Z,110.43
2022-12-15T19:02:28.651Z,125.63
2022-12-15T19:04:56.252Z,80.40
2022-12-15T19:07:23.996Z,99.77
2022-12-15T19:09:51.881Z,75.37
2022-12-15T19:12:19.440Z,71.13
2022-12-15T19:14:47.666Z,76.87
2022-12-15T19:17:35.282Z,68.47
2022-12-15T19:20:21.962Z,85.43
2022-12-15T19:22:49.653Z,76.67
2022-12-15T19:25:25.480Z,129.70
2022-12-15T19:27:58.566Z,109.27
2022-12-15T19:30:27.435Z,113.23
2022-12-15T19:32:55.081Z,99.77
2022-12-15T19:35:22.601Z,95.20
2022-12-15T19:37:50.135Z,91.77
2022-12-15T19:40:20.072Z,98.93
2022-12-15T19:42:47.735Z,93.63
2022-12-15T19:45:16.791Z,94.63
2022-12-15T19:47:44.465Z,89.63
2022-12-15T19:50:19.377Z,65.40
2022-12-15T19:52:48.322Z,86.20
2022-12-15T19:55:21.311Z,94.87
2022-12-15T19:57:48.752Z,80.93
2022-12-15T20:00:16.423Z,68.80
2022-12-15T20:02:44.809Z,77.53
2022-12-15T20:05:12.353Z,77.87
2022-12-15T20:07:39.890Z,71.23
2022-12-15T20:10:22.014Z,74.73
2022-12-15T20:12:52.046Z,81.97
2022-12-15T20:15:21.542Z,88.73
2022-12-15T20:17:50.564Z,88.23
2022-12-15T20:20:19.356Z,76.40
2022-12-15T20:22:48.078Z,78.13
2022-12-15T20:25:19.995Z,87.67
2022-12-15T20:27:47.805Z,77.90
2022-12-15T20:30:19.870Z,84.23
2022-12-15T20:32:48.191Z,89.90
2022-12-15T20:35:19.636Z,82.47
2022-12-15T20:37:47.544Z,89.23
2022-12-15T20:40:22.831Z,79.40
2022-12-15T20:42:51.409Z,81.07
2022-12-15T20:45:20.506Z,73.90
2022-12-15T20:47:49.144Z,78.60
2022-12-15T20:50:27.256Z,75.30
2022-12-15T20:52:55.363Z,81.00
2022-12-15T20:55:22.909Z,75.93
2022-12-15T20:57:50.349Z,69.07
2022-12-15T21:00:18.388Z,71.70
2022-12-15T21:02:46.577Z,69.97
2022-12-15T21:05:18.490Z,65.77
2022-12-15T21:07:46.110Z,101.20
2022-12-15T21:10:14.263Z,81.50
2022-12-15T21:12:43.229Z,98.68
2022-12-15T21:15:17.893Z,79.67
2022-12-15T21:17:45.619Z,76.57
2022-12-15T21:20:14.156Z,70.87
2022-12-15T21:22:41.964Z,75.10
2022-12-15T21:25:23.007Z,78.23
2022-12-15T21:27:50.406Z,75.23
2022-12-15T21:30:20.608Z,77.23
2022-12-15T21:32:48.659Z,70.20
2022-12-15T21:35:17.258Z,69.87
2022-12-15T21:37:47.230Z,76.87
2022-12-15T21:40:22.006Z,74.07
2022-12-15T21:42:50.082Z,66.63
2022-12-15T21:45:22.097Z,92.50
2022-12-15T21:48:16.209Z,93.43
2022-12-15T21:50:45.675Z,84.27
2022-12-15T21:53:16.828Z,84.90
2022-12-15T21:55:45.816Z,72.20
2022-12-15T21:58:25.014Z,70.87
2022-12-15T22:00:52.422Z,64.03
2022-12-15T22:03:22.105Z,62.53
2022-12-15T22:05:49.725Z,64.70
2022-12-15T22:08:22.081Z,62.90
2022-12-15T22:10:50.599Z,60.70
2022-12-15T22:13:21.093Z,67.17
2022-12-15T22:15:50.744Z,53.57
2022-12-15T22:18:22.660Z,59.10
2022-12-15T22:20:52.344Z,58.97
2022-12-15T22:23:20.411Z,64.93
2022-12-15T22:25:50.528Z,58.43
2022-12-15T22:28:21.637Z,52.80
2022-12-15T22:30:52.343Z,70.10
2022-12-15T22:33:26.078Z,67.20
2022-12-15T22:35:54.829Z,66.80
2022-12-15T22:38:23.305Z,63.60
2022-12-15T22:40:55.637Z,66.80
2022-12-15T22:43:29.965Z,63.50
2022-12-15T22:45:57.313Z,51.97
2022-12-15T22:48:26.483Z,72.43
2022-12-15T22:50:53.710Z,61.13
2022-12-15T22:53:22.800Z,59.77
2022-12-15T22:55:51.019Z,78.27
2022-12-15T22:58:27.846Z,78.53
2022-12-15T23:00:55.942Z,78.47
2022-12-15T23:03:23.616Z,82.83
2022-12-15T23:05:51.548Z,62.37
2022-12-15T23:08:18.966Z,59.30
2022-12-15T23:11:05.457Z,71.97
2022-12-15T23:13:33.057Z,54.57
2022-12-15T23:16:19.239Z,56.07
2022-12-15T23:18:46.806Z,56.03
2022-12-15T23:21:16.118Z,50.57
2022-12-15T23:23:43.751Z,59.63
2022-12-15T23:26:11.188Z,49.90
2022-12-15T23:28:38.651Z,57.27
2022-12-15T23:31:06.106Z,65.77
2022-12-15T23:33:34.038Z,65.07
2022-12-15T23:36:01.629Z,64.00
2022-12-15T23:38:29.469Z,62.93
2022-12-15T23:40:57.277Z,74.57
2022-12-15T23:43:25.314Z,79.80
2022-12-15T23:45:57.072Z,65.60
2022-12-15T23:48:25.037Z,69.10
2022-12-15T23:50:52.303Z,72.20
2022-12-15T23:53:19.637Z,65.27
2022-12-15T23:55:46.943Z,73.47
2022-12-15T23:58:14.344Z,90.43
